Nearby METAR Reports

 

KISM - Kissimmee/Orland, Florida, USA
Distance from station: NW 19mi, 31km
Updated: 10/21/2018 11:56am
Partly cloudy
Partly cloudy
 Wind from NE
Wind: NE 8 mph , 13 km/h
Temperature: 79°F , 26°C
Dew Point: 63°F , 17°C
Humidity: 58%
Barometer: 30.08 inHg , 1018.6 hPa
Clouds: Partly cloudy
Visibility: 10 miles , 16 km
Cloud details: Partly cloudy 2200 ft
2018/10/21 15:56 KISM 211556Z 04007KT 10SM SCT022 26/17 A3008
KMCO - Orlando, Florida, USA
Distance from station: NNW 23mi, 37km
Updated: 10/21/2018 11:53am
Few Clouds
Few Clouds
 Wind from N
Wind: N 10 mph , 17 km/h
Temperature: 77°F , 25°C
Dew Point: 59°F , 15°C
Humidity: 54%
Barometer: 30.07 inHg , 1018.3 hPa
Clouds: Few Clouds
Visibility: 10 miles , 16 km
Cloud details: Few Clouds 2300 ft
2018/10/21 15:53 KMCO 211553Z 36009KT 10SM FEW023 25/15 A3007 RMK AO2 SLP182 T02500150
 
KORL - Orlando, Florida, USA
Distance from station: NNW 32mi, 51km
Updated: 10/21/2018 11:53am
Clear
Clear
 Wind from NE
Wind: NE 9 mph , 15 km/h
Temperature: 77°F , 25°C
Dew Point: 59°F , 15°C
Humidity: 54%
Barometer: 30.08 inHg , 1018.6 hPa
Clouds: Clear
Visibility: 10 miles , 16 km
2018/10/21 15:53 KORL 211553Z 04008KT 10SM CLR 25/15 A3008 RMK AO2 SLP189 T02500150 PNO $
KMLB - Melbourne, Florida, USA
Distance from station: E 32mi, 52km
Updated: 10/21/2018 12:30pm
Mostly cloudy
Mostly cloudy
 Wind from N
Wind: N 17 mph , 28 km/h, Gust: 24 mph , 39 km/h
Temperature: 81°F , 27°C
Heat Index: 83°F , 28°C
Dew Point: 64°F , 18°C
Humidity: 58%
Barometer: 30.05 inHg , 1017.6 hPa
Clouds: Mostly cloudy
Visibility: 10 miles , 16 km
Cloud details: Mostly cloudy 3000 ft
2018/10/21 16:30 KMLB 211630Z 35015G21KT 10SM BKN030 27/18 A3005 RMK AO2 T02670183
 
KGIF - Winter Haven, Florida, USA
Distance from station: W 35mi, 56km
Updated: 10/21/2018 11:53am
Partly cloudy
Partly cloudy
 Wind from NNE
Wind: NNE 10 mph , 17 km/h
Temperature: 82°F , 28°C
Heat Index: 84°F , 29°C
Dew Point: 66°F , 19°C
Humidity: 58%
Barometer: 30.07 inHg , 1018.3 hPa
Clouds: Partly cloudy
Visibility: 10 miles , 16 km
Cloud details: Partly cloudy 2500 ft
2018/10/21 15:53 KGIF 211553Z AUTO 02009KT 10SM SCT025 28/19 A3007 RMK AO2 SLP181 T02780194
KTIX - Titusville, Florida, USA
Distance from station: NE 35mi, 57km
Updated: 10/21/2018 11:55am
Partly cloudy
Partly cloudy
 Wind from N
Wind: N 14 mph , 22 km/h, Gust: 21 mph , 33 km/h
Temperature: 79°F , 26°C
Dew Point: 63°F , 17°C
Humidity: 58%
Barometer: 30.08 inHg , 1018.6 hPa
Clouds: Partly cloudy
Visibility: 7 miles , 11 km
Cloud details: Partly cloudy 2700 ft
2018/10/21 15:55 KTIX 211555Z 01012G18KT 7SM SCT027 26/17 A3008
 
KCOF - Patrick Afb/Coco, Florida, USA
Distance from station: ENE 36mi, 58km
Updated: 10/21/2018 11:56am
Partly cloudy
Partly cloudy
 Wind from N
Wind: N 16 mph , 26 km/h
Temperature: 79°F , 26°C
Dew Point: 66°F , 19°C
Humidity: 65%
Barometer: 30.06 inHg , 1017.9 hPa
Clouds: Partly cloudy
Visibility: 10 miles , 16 km
Cloud details: Partly cloudy 2800 ft
2018/10/21 15:56 KCOF 211556Z AUTO 36014KT 10SM SCT028 26/19 A3006 RMK AO2 SLP184 T02560192 $
KBOW - Bartow Municipal, Florida, USA
Distance from station: WSW 38mi, 61km
Updated: 10/21/2018 12:45pm
Partly cloudy
Partly cloudy
 Wind from NNE
Wind: NNE 7 mph , 11 km/h, Gust: 15 mph , 24 km/h
Temperature: 79°F , 26°C
Dew Point: 64°F , 18°C
Humidity: 61%
Barometer: 30.07 inHg , 1018.3 hPa
Clouds: Partly cloudy
Visibility: 10 miles , 16 km
Cloud details: Partly cloudy 3000 ft
2018/10/21 16:45 KBOW 211645Z 03006G13KT 10SM SCT030 26/18 A3007
 
KXMR - Cape Canaveral, Florida, USA
Distance from station: NE 44mi, 72km
Updated: 10/21/2018 12:06pm
Partly cloudy
Partly cloudy
 Wind from N
Wind: N 16 mph , 26 km/h, Gust: 22 mph , 35 km/h
Temperature: 77°F , 25°C
Dew Point: 63°F , 17°C
Humidity: 61%
Barometer: 30.05 inHg , 1017.6 hPa
Clouds: Partly cloudy
Visibility: 10 miles , 16 km
Cloud details: Partly cloudy 2900 ft
2018/10/21 16:06 KXMR 211606Z AUTO 36014G19KT 10SM SCT029 25/17 A3005 RMK AO2 SLP179 $
KTTS - Nasa Shuttle Fcl, Florida, USA
Distance from station: NE 45mi, 72km
Updated: 10/21/2018 11:56am
Few Clouds
Few Clouds
 Wind from NNE
Wind: NNE 16 mph , 26 km/h
Temperature: 77°F , 25°C
Dew Point: 63°F , 17°C
Humidity: 61%
Clouds: Few Clouds
Visibility: 10 miles , 16 km
Cloud details: Few Clouds 2900 ft
2018/10/21 15:56 KTTS 211556Z AUTO 02014KT 10SM FEW029 25/17 M RMK AO2 SLPNO T02500172 $
 
KSFB - Sanford/Orlando, Florida, USA
Distance from station: N 45mi, 73km
Updated: 10/21/2018 11:53am
Clear
Clear
 Wind from NE
Wind: NE 12 mph , 19 km/h
Temperature: 77°F , 25°C
Dew Point: 57°F , 14°C
Humidity: 51%
Barometer: 30.09 inHg , 1019 hPa
Clouds: Clear
Visibility: 10 miles , 16 km
2018/10/21 15:53 KSFB 211553Z 04010KT 10SM CLR 25/14 A3009 RMK AO2 SLP186 T02500144
KLAL - Lakeland Regiona, Florida, USA
Distance from station: WSW 52mi, 84km
Updated: 10/21/2018 11:50am
Partly cloudy
Partly cloudy
 Wind from NNE
Wind: NNE 9 mph , 15 km/h
Temperature: 79°F , 26°C
Dew Point: 66°F , 19°C
Humidity: 65%
Barometer: 30.07 inHg , 1018.3 hPa
Clouds: Partly cloudy
Visibility: 10 miles , 16 km
Cloud details: Partly cloudy 2500 ft
2018/10/21 15:50 KLAL 211550Z 02008KT 10SM SCT025 26/19 A3007
 
KVRB - Vero Beach, Florida, USA
Distance from station: SE 57mi, 91km
Updated: 10/21/2018 11:53am
Mostly cloudy
Mostly cloudy
 Wind from N
Wind: N 15 mph , 24 km/h, Gust: 22 mph , 35 km/h
Temperature: 82°F , 28°C
Heat Index: 86°F , 30°C
Dew Point: 72°F , 22°C
Humidity: 70%
Barometer: 30.04 inHg , 1017.3 hPa
Clouds: Mostly cloudy
Visibility: 10 miles , 16 km
Cloud details: Mostly cloudy 1500 ft
Mostly cloudy 2600 ft
Mostly cloudy 4300 ft
2018/10/21 15:53 KVRB 211553Z 36013G19KT 10SM BKN015 BKN026 BKN043 28/22 A3004 RMK AO2 SLP171 T02780222
KZPH - Zephyrhills, Florida, USA
Distance from station: W 60mi, 96km
Updated: 10/21/2018 12:55pm
Clear
Clear
 Wind from N
Wind: N 9 mph , 15 km/h
Temperature: 79°F , 26°C
Dew Point: 66°F , 19°C
Humidity: 65%
Barometer: 30.07 inHg , 1018.3 hPa
Clouds: Clear
Visibility: 10 miles , 16 km
2018/10/21 16:55 KZPH 211655Z AUTO 01008KT 10SM CLR 26/19 A3007 RMK AO2 T02620188
 
KPCM - Plant City Muni, Florida, USA
Distance from station: W 61mi, 98km
Updated: 10/21/2018 12:35pm
Partly cloudy
Partly cloudy
 Wind from NE
Wind: NE 12 mph , 19 km/h
Temperature: 82°F , 28°C
Heat Index: 84°F , 29°C
Dew Point: 66°F , 19°C
Humidity: 58%
Barometer: 30.07 inHg , 1018.3 hPa
Clouds: Partly cloudy
Visibility: 10 miles , 16 km
Cloud details: Partly cloudy 2400 ft
2018/10/21 16:35 KPCM 211635Z AUTO 04010KT 10SM SCT024 28/19 A3007 RMK AO2
KLEE - Leesburg, Florida, USA
Distance from station: NW 62mi, 100km
Updated: 10/21/2018 11:53am
Clear
Clear
 Wind from NE
Wind: NE 12 mph , 19 km/h
Temperature: 73°F , 23°C
Dew Point: 54°F , 12°C
Humidity: 50%
Barometer: 30.10 inHg , 1019.3 hPa
Clouds: Clear
Visibility: 10 miles , 16 km
2018/10/21 15:53 KLEE 211553Z 04010KT 10SM CLR 23/12 A3010 RMK AO2 SLP192 T02330117
 
KOBE - Okeechobee Cty, Florida, USA
Distance from station: SSE 62mi, 100km
Updated: 10/21/2018 12:35pm
Partly cloudy
Partly cloudy
 Wind from NNE
Wind: NNE 9 mph , 15 km/h, Gust: 16 mph , 26 km/h
Temperature: 84°F , 29°C
Heat Index: 88°F , 31°C
Dew Point: 70°F , 21°C
Humidity: 62%
Barometer: 30.03 inHg , 1016.9 hPa
Clouds: Partly cloudy
Cloud details: Partly cloudy 3300 ft
2018/10/21 16:35 KOBE 211635Z AUTO 03008G14KT SCT033 29/21 A3003 RMK AO2 PWINO
KFPR - Fort Pierce, Florida, USA
Distance from station: SE 65mi, 104km
Updated: 10/21/2018 12:34pm
Mostly cloudy
Mostly cloudy
 Wind from N
Wind: N 12 mph , 19 km/h, Gust: 18 mph , 30 km/h
Temperature: 82°F , 28°C
Heat Index: 86°F , 30°C
Dew Point: 70°F , 21°C
Humidity: 66%
Barometer: 30.03 inHg , 1016.9 hPa
Clouds: Mostly cloudy
Visibility: 10 miles , 16 km
Cloud details: Partly cloudy 2200 ft
Mostly cloudy 2800 ft
Mostly cloudy 3900 ft
2018/10/21 16:34 KFPR 211634Z 01010G16KT 10SM SCT022 BKN028 BKN039 28/21 A3003 RMK AO2 T02780211
 
KDED - Deland, Florida, USA
Distance from station: N 66mi, 106km
Updated: 10/21/2018 12:35pm
Clear
Clear
 Wind from N
Wind: N 12 mph , 19 km/h, Gust: 18 mph , 30 km/h
Temperature: 73°F , 23°C
Dew Point: 57°F , 14°C
Humidity: 57%
Barometer: 30.09 inHg , 1019 hPa
Clouds: Clear
Visibility: 10 miles , 16 km
2018/10/21 16:35 KDED 211635Z AUTO 01010G16KT 330V040 10SM CLR 23/14 A3009 RMK AO2
KEVB - New Smyrna Beach, Florida, USA
Distance from station: NNE 66mi, 106km
Updated: 10/21/2018 12:47pm
Partly cloudy
Partly cloudy
 Wind from NNE
Wind: NNE 17 mph , 28 km/h, Gust: 24 mph , 39 km/h
Temperature: 75°F , 24°C
Dew Point: 59°F , 15°C
Humidity: 57%
Barometer: 30.10 inHg , 1019.3 hPa
Clouds: Partly cloudy
Visibility: 10 miles , 16 km
Cloud details: Partly cloudy 3000 ft
2018/10/21 16:47 KEVB 211647Z 03015G21KT 10SM SCT030 24/15 A3010